Time;durP1;ratioP1;P1;durP2;ratioP2;P2;SDS_P1;SDS_P2;PMS_P1;PMS_P2;Temp;Humidity;BMP_temperature;BMP_pressure;BME280_temperature;BME280_humidity;BME280_pressure;Samples;Min_cycle;Max_cycle;Signal;HPM_P1;HPM_P2
2023/01/10 00:00:26;;;;;;;12.67;10.07;;;19.30;44.10;;;;;;5012740;28;20222;-72
2023/01/10 00:02:52;;;;;;;12.20;9.77;;;19.30;44.10;;;;;;4993175;28;20470;-72
2023/01/10 00:05:18;;;;;;;12.77;10.40;;;19.30;44.10;;;;;;5014072;28;20448;-72
2023/01/10 00:07:44;;;;;;;10.50;9.50;;;19.30;44.10;;;;;;5012405;28;20808;-72
2023/01/10 00:10:10;;;;;;;9.70;8.10;;;19.30;44.10;;;;;;5014173;28;20463;-71
2023/01/10 00:15:20;;;;;;;9.97;8.97;;;19.30;44.00;;;;;;5011868;28;20445;-71
2023/01/10 00:17:46;;;;;;;13.37;9.60;;;19.20;44.00;;;;;;5010076;28;20447;-72
2023/01/10 00:20:12;;;;;;;13.20;8.90;;;19.20;44.00;;;;;;5013420;28;20567;-72
2023/01/10 00:22:38;;;;;;;9.10;8.17;;;19.20;44.00;;;;;;5014622;28;20222;-72
2023/01/10 00:25:04;;;;;;;10.67;9.00;;;19.20;44.00;;;;;;5013798;28;21288;-71
2023/01/10 00:27:30;;;;;;;11.37;9.00;;;19.20;44.00;;;;;;5013265;28;20273;-72
2023/01/10 00:29:57;;;;;;;9.10;8.17;;;19.20;44.00;;;;;;5011063;28;21111;-71
2023/01/10 00:32:22;;;;;;;10.13;8.83;;;19.30;44.10;;;;;;5011487;28;20214;-72
2023/01/10 00:34:48;;;;;;;11.90;8.87;;;19.20;44.00;;;;;;5013268;28;20473;-70
2023/01/10 00:37:13;;;;;;;10.13;8.10;;;19.20;44.00;;;;;;5013411;28;20211;-71
2023/01/10 00:39:39;;;;;;;10.13;8.87;;;19.20;44.00;;;;;;5012264;28;20229;-72
2023/01/10 00:44:50;;;;;;;9.97;8.60;;;19.20;44.10;;;;;;5013918;28;20226;-70
2023/01/10 00:47:15;;;;;;;11.30;9.27;;;19.20;44.00;;;;;;5018173;28;20522;-71
2023/01/10 00:49:41;;;;;;;8.53;7.67;;;19.20;44.00;;;;;;5016980;28;20788;-71
2023/01/10 00:52:07;;;;;;;8.87;8.00;;;19.20;44.00;;;;;;5018565;28;20223;-71
2023/01/10 00:54:32;;;;;;;9.50;8.20;;;19.20;44.00;;;;;;5015996;28;20673;-71
2023/01/10 00:56:58;;;;;;;9.43;8.53;;;19.20;44.00;;;;;;5016756;28;20223;-71
2023/01/10 00:59:24;;;;;;;11.90;9.20;;;19.20;44.00;;;;;;5015930;28;20242;-72
2023/01/10 01:01:51;;;;;;;9.33;8.43;;;19.20;44.00;;;;;;5013872;28;20218;-71
2023/01/10 01:04:17;;;;;;;8.07;7.37;;;19.20;44.00;;;;;;5014757;28;20325;-72
2023/01/10 01:06:43;;;;;;;9.33;8.10;;;19.20;43.90;;;;;;5019017;28;20553;-70
2023/01/10 01:09:09;;;;;;;9.23;7.70;;;19.20;44.00;;;;;;5021052;28;20932;-71
2023/01/10 01:11:34;;;;;;;8.50;7.27;;;19.30;44.10;;;;;;5017873;28;20409;-71
2023/01/10 01:14:00;;;;;;;7.33;6.63;;;19.30;44.10;;;;;;5018544;28;20223;-72
2023/01/10 01:16:25;;;;;;;8.60;7.67;;;19.30;44.10;;;;;;5014922;28;20253;-71
2023/01/10 01:18:51;;;;;;;7.73;7.03;;;19.30;44.10;;;;;;5015009;28;20223;-71
2023/01/10 01:21:17;;;;;;;7.73;7.03;;;19.30;44.00;;;;;;5000552;28;20672;-71
2023/01/10 01:23:43;;;;;;;8.73;7.40;;;19.30;44.10;;;;;;5019540;28;20230;-72
2023/01/10 01:26:09;;;;;;;8.47;7.40;;;19.20;44.00;;;;;;5020898;28;20547;-71
2023/01/10 01:28:35;;;;;;;7.93;7.13;;;19.30;44.10;;;;;;5019746;28;20234;-71
2023/01/10 01:31:07;;;;;;;6.50;5.90;;;19.30;44.10;;;;;;5002146;28;20501;-72
2023/01/10 01:33:32;;;;;;;7.63;6.93;;;19.30;44.10;;;;;;5017028;28;20430;-72
2023/01/10 01:35:58;;;;;;;8.70;7.20;;;19.20;44.00;;;;;;5016846;28;20771;-71
2023/01/10 01:38:23;;;;;;;8.10;7.13;;;19.20;43.90;;;;;;5017650;28;20235;-71
2023/01/10 01:40:49;;;;;;;6.90;6.20;;;19.20;44.00;;;;;;5013867;28;20250;-71
2023/01/10 01:43:22;;;;;;;7.47;6.67;;;19.20;44.00;;;;;;5018026;28;20224;-72
2023/01/10 01:45:48;;;;;;;7.47;6.77;;;19.20;44.00;;;;;;5015858;28;20226;-72
2023/01/10 01:48:21;;;;;;;6.90;5.87;;;19.20;44.00;;;;;;5017688;28;20454;-72
2023/01/10 01:51:09;;;;;;;6.83;6.23;;;19.20;43.90;;;;;;5017444;28;20285;-72
2023/01/10 01:53:59;;;;;;;6.90;6.30;;;19.20;44.00;;;;;;5002865;28;20942;-72
2023/01/10 01:56:29;;;;;;;6.80;6.17;;;19.20;44.00;;;;;;5017603;28;20488;-71
2023/01/10 01:59:18;;;;;;;6.50;5.90;;;19.20;44.00;;;;;;5015126;28;20443;-71
2023/01/10 02:01:48;;;;;;;6.90;6.30;;;19.20;44.00;;;;;;5015486;28;20519;-71
2023/01/10 02:04:19;;;;;;;7.03;6.33;;;19.20;44.00;;;;;;5014754;28;21119;-71
2023/01/10 02:06:47;;;;;;;7.53;6.80;;;19.20;44.00;;;;;;5019199;28;20988;-71
2023/01/10 02:09:27;;;;;;;6.27;5.77;;;19.20;44.00;;;;;;5013014;28;20460;-71
2023/01/10 02:11:53;;;;;;;7.97;6.13;;;19.20;44.00;;;;;;5016491;28;20461;-71
2023/01/10 02:14:20;;;;;;;5.97;5.47;;;19.20;44.00;;;;;;5012486;28;20517;-74
2023/01/10 02:16:46;;;;;;;5.73;5.33;;;19.20;44.00;;;;;;5019124;28;20463;-74
2023/01/10 02:19:28;;;;;;;6.20;5.60;;;19.20;44.00;;;;;;5018737;28;20517;-74
2023/01/10 02:22:20;;;;;;;6.20;5.70;;;19.20;44.00;;;;;;5013632;28;20624;-71
2023/01/10 02:25:28;;;;;;;6.50;5.90;;;19.20;44.00;;;;;;5013854;28;20536;-72
2023/01/10 02:28:19;;;;;;;6.30;5.70;;;19.20;43.90;;;;;;5015002;28;20433;-72
2023/01/10 02:31:03;;;;;;;5.90;5.30;;;19.20;44.00;;;;;;5015059;28;20950;-72
2023/01/10 02:33:38;;;;;;;5.80;5.30;;;19.20;44.00;;;;;;5015738;28;20593;-72
2023/01/10 02:36:32;;;;;;;5.27;4.87;;;19.20;44.00;;;;;;5016753;28;20462;-72
2023/01/10 02:39:06;;;;;;;6.00;5.43;;;19.20;44.00;;;;;;5018038;28;20891;-72
2023/01/10 02:41:47;;;;;;;5.97;5.50;;;19.20;44.00;;;;;;5013479;28;20485;-72
2023/01/10 02:44:28;;;;;;;5.87;5.30;;;19.20;44.00;;;;;;5013761;28;20443;-71
2023/01/10 02:46:55;;;;;;;5.63;5.20;;;19.20;43.90;;;;;;5013574;28;20964;-72
2023/01/10 02:49:21;;;;;;;5.00;4.60;;;19.20;44.00;;;;;;5012919;28;20476;-71
2023/01/10 02:51:46;;;;;;;5.50;5.10;;;19.20;44.00;;;;;;5016359;28;20461;-71
2023/01/10 02:54:23;;;;;;;6.57;5.90;;;19.20;44.00;;;;;;5014453;28;20226;-72
2023/01/10 02:56:54;;;;;;;5.57;5.17;;;19.20;44.00;;;;;;5014061;28;20281;-72
2023/01/10 02:59:46;;;;;;;4.97;4.60;;;19.20;44.00;;;;;;5012051;28;20956;-72
2023/01/10 03:02:29;;;;;;;5.33;4.93;;;19.20;44.00;;;;;;5015846;28;20929;-71
2023/01/10 03:05:09;;;;;;;4.67;4.27;;;19.20;44.00;;;;;;4998756;28;21415;-72
2023/01/10 03:08:06;;;;;;;5.30;4.80;;;19.20;44.00;;;;;;5013767;28;20802;-72
2023/01/10 03:10:50;;;;;;;5.37;4.87;;;19.20;44.00;;;;;;5016266;28;20426;-72
2023/01/10 03:13:31;;;;;;;6.30;4.63;;;19.20;44.00;;;;;;5012108;28;20419;-70
2023/01/10 03:15:58;;;;;;;5.23;4.73;;;19.20;44.00;;;;;;5001583;28;20435;-71
2023/01/10 03:18:38;;;;;;;4.80;4.30;;;19.20;43.90;;;;;;5010663;28;21086;-71
2023/01/10 03:21:06;;;;;;;5.33;4.83;;;19.20;44.00;;;;;;5000897;28;20485;-71
2023/01/10 03:23:33;;;;;;;5.53;4.77;;;19.20;44.00;;;;;;4997491;28;20462;-72
2023/01/10 03:25:59;;;;;;;4.90;4.60;;;19.20;43.90;;;;;;5013699;28;20555;-72
2023/01/10 03:28:40;;;;;;;4.67;4.27;;;19.20;44.00;;;;;;5013003;28;21290;-72
2023/01/10 03:31:14;;;;;;;4.53;4.17;;;19.20;43.90;;;;;;5014633;28;20453;-72
2023/01/10 03:33:41;;;;;;;4.93;4.37;;;19.20;43.90;;;;;;5014599;28;20419;-72
2023/01/10 03:36:30;;;;;;;7.70;4.73;;;19.20;44.00;;;;;;5013986;28;20515;-72
2023/01/10 03:38:56;;;;;;;4.50;4.20;;;19.20;44.00;;;;;;4997795;28;20512;-72
2023/01/10 03:41:51;;;;;;;4.40;4.00;;;19.20;44.00;;;;;;5016440;28;20443;-72
2023/01/10 03:47:35;;;;;;;5.20;4.80;;;19.20;43.90;;;;;;5011539;28;20464;-72
2023/01/10 03:50:10;;;;;;;4.00;3.80;;;19.20;44.00;;;;;;5014304;28;20443;-72
2023/01/10 03:52:38;;;;;;;4.77;4.33;;;19.10;43.90;;;;;;5014752;28;20438;-72
2023/01/10 03:55:06;;;;;;;4.30;4.00;;;19.20;44.00;;;;;;5011219;28;20934;-72
2023/01/10 03:57:31;;;;;;;4.17;3.87;;;19.20;44.00;;;;;;5014590;28;20610;-72
2023/01/10 03:59:58;;;;;;;4.23;3.93;;;19.20;44.00;;;;;;5013959;28;20543;-72
2023/01/10 04:02:30;;;;;;;4.67;4.27;;;19.20;43.90;;;;;;5011644;28;20229;-72
2023/01/10 04:04:56;;;;;;;4.70;4.30;;;19.20;43.90;;;;;;5013201;28;20595;-72
2023/01/10 04:07:22;;;;;;;5.30;4.80;;;19.20;43.90;;;;;;5013036;28;20449;-71
2023/01/10 04:09:48;;;;;;;3.67;3.37;;;19.20;43.90;;;;;;5012656;28;20506;-72
2023/01/10 04:12:14;;;;;;;4.20;3.57;;;19.20;44.00;;;;;;5015150;28;20427;-71
2023/01/10 04:14:40;;;;;;;3.80;3.50;;;19.20;44.00;;;;;;5019539;28;20724;-72
2023/01/10 04:17:05;;;;;;;4.10;3.80;;;19.20;44.00;;;;;;5009992;28;20440;-71
2023/01/10 04:19:31;;;;;;;4.27;3.87;;;19.20;44.00;;;;;;5019314;28;20264;-72
2023/01/10 04:21:56;;;;;;;5.03;4.53;;;19.20;44.00;;;;;;5012466;28;20228;-71
2023/01/10 04:24:22;;;;;;;3.63;3.40;;;19.20;44.00;;;;;;5018375;28;20222;-72
2023/01/10 04:26:48;;;;;;;4.47;3.50;;;19.20;44.00;;;;;;5002172;28;20222;-72
2023/01/10 04:29:13;;;;;;;5.00;4.53;;;19.20;44.00;;;;;;5019789;28;20677;-72
2023/01/10 04:31:40;;;;;;;4.00;3.70;;;19.20;44.00;;;;;;5021192;28;20237;-71
2023/01/10 04:34:07;;;;;;;4.07;3.67;;;19.20;44.00;;;;;;5017981;28;20238;-72
2023/01/10 04:36:32;;;;;;;4.27;3.87;;;19.20;44.00;;;;;;5019221;28;20478;-72
2023/01/10 04:38:58;;;;;;;3.97;3.67;;;19.20;44.00;;;;;;5005262;28;20434;-72
2023/01/10 04:41:24;;;;;;;3.80;3.50;;;19.20;44.00;;;;;;5016329;28;20319;-72
2023/01/10 04:43:49;;;;;;;3.70;3.50;;;19.20;44.00;;;;;;5018235;28;21335;-71
2023/01/10 04:46:15;;;;;;;3.87;3.57;;;19.20;44.00;;;;;;5003469;28;20575;-72
2023/01/10 04:48:41;;;;;;;3.60;3.40;;;19.20;44.70;;;;;;5021055;28;20269;-72
2023/01/10 04:51:06;;;;;;;4.00;3.53;;;19.20;44.00;;;;;;5017944;28;20250;-71
2023/01/10 04:53:32;;;;;;;3.90;3.60;;;19.20;44.00;;;;;;5016768;28;20581;-72
2023/01/10 04:56:05;;;;;;;4.23;3.93;;;19.30;44.10;;;;;;5019278;28;20567;-71
2023/01/10 04:58:35;;;;;;;3.60;3.40;;;19.30;44.10;;;;;;5018678;28;20320;-72
2023/01/10 05:01:11;;;;;;;3.20;3.00;;;19.20;44.00;;;;;;5012513;28;21020;-72
2023/01/10 05:03:37;;;;;;;3.33;3.03;;;19.30;44.10;;;;;;5020596;28;20434;-71
2023/01/10 05:06:03;;;;;;;3.40;3.20;;;19.30;44.10;;;;;;5019235;28;20433;-71
2023/01/10 05:08:29;;;;;;;3.40;3.20;;;19.30;44.00;;;;;;5018166;28;20704;-72
2023/01/10 05:10:55;;;;;;;3.90;3.60;;;19.30;44.10;;;;;;5017581;28;20459;-72
2023/01/10 05:13:21;;;;;;;3.57;3.27;;;19.30;44.00;;;;;;5015116;28;20218;-72
2023/01/10 05:15:46;;;;;;;3.70;3.50;;;19.30;43.90;;;;;;5017688;28;20285;-72
2023/01/10 05:18:12;;;;;;;3.27;3.07;;;19.30;43.70;;;;;;5017757;28;20729;-72
2023/01/10 05:20:37;;;;;;;3.43;3.23;;;19.40;43.70;;;;;;5015827;28;20225;-71
2023/01/10 05:23:03;;;;;;;2.90;2.70;;;19.40;43.60;;;;;;5012383;28;20215;-72
2023/01/10 05:25:28;;;;;;;3.20;3.00;;;19.40;43.50;;;;;;5013024;28;20231;-72
2023/01/10 05:27:54;;;;;;;3.87;3.47;;;19.40;43.60;;;;;;5013042;28;20226;-73
2023/01/10 05:30:20;;;;;;;3.00;2.80;;;19.50;43.60;;;;;;5001602;28;20222;-72
2023/01/10 05:32:45;;;;;;;3.00;2.80;;;19.50;43.60;;;;;;5015063;28;20227;-71
2023/01/10 05:35:11;;;;;;;3.47;3.17;;;19.50;43.60;;;;;;5018624;28;20578;-72
2023/01/10 05:37:37;;;;;;;3.20;2.90;;;19.50;43.60;;;;;;5015787;28;20270;-73
2023/01/10 05:40:03;;;;;;;3.57;3.37;;;19.50;43.60;;;;;;5013500;28;20290;-73
2023/01/10 05:42:29;;;;;;;3.53;3.30;;;19.40;43.50;;;;;;5014140;28;20470;-73
2023/01/10 05:44:54;;;;;;;3.23;3.03;;;19.50;43.70;;;;;;5011839;28;20462;-72
2023/01/10 05:47:20;;;;;;;3.40;3.10;;;19.40;43.60;;;;;;5011317;28;20330;-72
2023/01/10 05:49:45;;;;;;;3.50;3.30;;;19.40;43.50;;;;;;5013570;28;20280;-72
2023/01/10 05:52:11;;;;;;;3.77;3.47;;;19.40;43.60;;;;;;5015956;28;20685;-72
2023/01/10 05:54:36;;;;;;;3.50;3.20;;;19.40;43.70;;;;;;5015966;28;20230;-72
2023/01/10 05:57:02;;;;;;;3.20;3.00;;;19.40;43.70;;;;;;5017138;28;20765;-70
2023/01/10 05:59:28;;;;;;;3.17;2.97;;;19.40;43.70;;;;;;5015312;28;20595;-72
2023/01/10 06:01:53;;;;;;;3.63;3.33;;;19.40;43.70;;;;;;5014590;28;20231;-72
2023/01/10 06:04:19;;;;;;;3.87;3.53;;;19.40;43.70;;;;;;5015374;28;20257;-71
2023/01/10 06:06:44;;;;;;;3.37;3.10;;;19.40;43.70;;;;;;5012337;28;20226;-72
2023/01/10 06:09:10;;;;;;;3.40;3.20;;;19.40;43.70;;;;;;5017608;28;20246;-72
2023/01/10 06:11:37;;;;;;;3.70;3.40;;;19.40;43.70;;;;;;5014357;28;20271;-74
2023/01/10 06:14:04;;;;;;;4.73;3.00;;;19.40;43.70;;;;;;5016649;28;20215;-73
2023/01/10 06:16:29;;;;;;;3.30;3.10;;;19.40;43.70;;;;;;5016767;28;20490;-72
2023/01/10 06:18:55;;;;;;;3.40;3.20;;;19.40;43.70;;;;;;5010692;28;20589;-73
2023/01/10 06:21:21;;;;;;;3.50;3.10;;;19.40;43.70;;;;;;5013682;28;20743;-73
2023/01/10 06:23:46;;;;;;;7.30;4.77;;;19.40;43.70;;;;;;5014420;28;20302;-71
2023/01/10 06:26:12;;;;;;;4.07;3.77;;;19.40;43.60;;;;;;5015097;28;20227;-70
2023/01/10 06:28:39;;;;;;;4.07;3.77;;;19.40;43.50;;;;;;5010890;28;20702;-69
2023/01/10 06:31:06;;;;;;;4.67;3.20;;;19.40;43.50;;;;;;4996059;28;20283;-71
2023/01/10 06:33:32;;;;;;;5.03;4.50;;;19.40;43.50;;;;;;5001994;28;20504;-70
2023/01/10 06:35:57;;;;;;;8.60;4.70;;;19.40;43.30;;;;;;5008082;28;20454;-70
2023/01/10 06:38:23;;;;;;;3.53;3.23;;;19.40;42.90;;;;;;5010283;28;20309;-70
2023/01/10 06:40:48;;;;;;;3.17;2.93;;;19.50;43.00;;;;;;5013649;28;20226;-70
2023/01/10 06:43:14;;;;;;;5.00;3.60;;;19.50;43.10;;;;;;5013255;28;20227;-71
2023/01/10 06:45:39;;;;;;;3.63;3.40;;;19.40;43.10;;;;;;5015751;28;20959;-71
2023/01/10 06:48:05;;;;;;;2.90;2.70;;;19.40;43.20;;;;;;5011740;28;21239;-71
2023/01/10 06:50:30;;;;;;;3.23;3.03;;;19.40;43.30;;;;;;5012607;28;20779;-71
2023/01/10 06:53:01;;;;;;;5.97;3.37;;;19.40;43.30;;;;;;5009249;28;20211;-71
2023/01/10 06:55:28;;;;;;;3.40;3.07;;;19.40;43.30;;;;;;5015244;28;20697;-71
2023/01/10 06:57:58;;;;;;;3.93;3.53;;;19.40;43.30;;;;;;5012340;28;20469;-71
2023/01/10 07:00:26;;;;;;;3.60;3.33;;;19.40;43.30;;;;;;5010174;28;20607;-71
2023/01/10 07:02:53;;;;;;;3.33;3.03;;;19.40;43.40;;;;;;5009345;28;20504;-73
2023/01/10 07:05:19;;;;;;;3.13;2.93;;;19.40;43.40;;;;;;5008325;28;21110;-73
2023/01/10 07:07:44;;;;;;;2.93;2.73;;;19.40;43.40;;;;;;5013000;28;20476;-73
2023/01/10 07:10:10;;;;;;;3.43;3.13;;;19.40;43.50;;;;;;5012189;28;20454;-73
2023/01/10 07:12:36;;;;;;;3.93;3.53;;;19.40;43.40;;;;;;5011255;28;20322;-73
2023/01/10 07:15:01;;;;;;;3.20;3.00;;;19.40;43.50;;;;;;5010929;28;20422;-73
2023/01/10 07:17:29;;;;;;;4.23;3.93;;;19.40;43.50;;;;;;5009097;28;20775;-73
2023/01/10 07:19:54;;;;;;;4.37;3.50;;;19.40;43.50;;;;;;5006344;28;20222;-72
2023/01/10 07:22:21;;;;;;;3.00;2.80;;;19.40;43.60;;;;;;5006073;28;20558;-72
2023/01/10 07:24:46;;;;;;;3.10;2.90;;;19.40;43.40;;;;;;5008741;28;20510;-72
2023/01/10 07:27:12;;;;;;;3.60;3.30;;;19.40;43.40;;;;;;5007618;28;20230;-72
2023/01/10 07:29:38;;;;;;;2.87;2.67;;;19.40;43.50;;;;;;5008081;28;20223;-72
2023/01/10 07:32:04;;;;;;;2.93;2.73;;;19.40;43.50;;;;;;5007730;28;20218;-72
2023/01/10 07:34:29;;;;;;;2.80;2.60;;;19.40;43.50;;;;;;4991911;28;20207;-73
2023/01/10 07:36:55;;;;;;;3.07;2.77;;;19.40;43.50;;;;;;5008018;28;20458;-71
2023/01/10 07:39:20;;;;;;;2.43;2.23;;;19.40;43.50;;;;;;5005443;28;20384;-72
2023/01/10 07:41:47;;;;;;;2.63;2.43;;;19.40;43.50;;;;;;5008252;28;20326;-72
2023/01/10 07:44:12;;;;;;;2.90;2.50;;;19.40;43.60;;;;;;4994824;28;20238;-73
2023/01/10 07:46:38;;;;;;;2.87;2.30;;;19.40;43.50;;;;;;5005436;28;20522;-73
2023/01/10 07:49:04;;;;;;;2.70;2.50;;;19.40;43.60;;;;;;5005817;28;20230;-73
2023/01/10 07:51:30;;;;;;;3.00;2.80;;;19.40;43.60;;;;;;4990961;28;20306;-74
2023/01/10 07:53:56;;;;;;;2.70;2.50;;;19.40;43.60;;;;;;5005883;28;20459;-73
2023/01/10 07:56:21;;;;;;;2.83;2.63;;;19.40;43.60;;;;;;5006659;28;20496;-72
2023/01/10 07:58:47;;;;;;;2.80;2.60;;;19.40;43.50;;;;;;4991339;28;20572;-72
2023/01/10 08:01:13;;;;;;;8.17;2.50;;;19.40;43.50;;;;;;5006569;28;20222;-72
2023/01/10 08:03:38;;;;;;;2.50;2.30;;;19.40;43.60;;;;;;5010222;28;20643;-73
2023/01/10 08:06:06;;;;;;;3.10;2.87;;;19.40;43.50;;;;;;5011172;28;20309;-73
2023/01/10 08:08:33;;;;;;;2.67;2.47;;;19.40;43.60;;;;;;5009736;28;20230;-74
2023/01/10 08:10:59;;;;;;;2.90;2.70;;;19.40;43.60;;;;;;5012901;28;20472;-73
2023/01/10 08:13:25;;;;;;;2.80;2.60;;;19.40;43.60;;;;;;5004409;28;20468;-73
2023/01/10 08:15:51;;;;;;;2.40;2.20;;;19.40;43.60;;;;;;5007025;28;20214;-74
2023/01/10 08:18:18;;;;;;;4.23;2.53;;;19.40;43.60;;;;;;5002407;28;20238;-73
2023/01/10 08:20:46;;;;;;;2.37;2.20;;;19.40;43.60;;;;;;5002498;28;20457;-74
2023/01/10 08:23:12;;;;;;;2.50;2.30;;;19.40;43.60;;;;;;5013889;28;20498;-73
2023/01/10 08:25:37;;;;;;;2.73;2.53;;;19.40;43.60;;;;;;5011221;28;20435;-73
2023/01/10 08:28:03;;;;;;;2.27;2.10;;;19.40;43.60;;;;;;5012445;28;20246;-73
2023/01/10 08:30:28;;;;;;;2.60;2.40;;;19.40;43.60;;;;;;5016552;28;20665;-73
2023/01/10 08:32:54;;;;;;;2.90;2.60;;;19.40;43.60;;;;;;5010652;28;20931;-73
2023/01/10 08:35:20;;;;;;;2.50;2.30;;;19.40;43.70;;;;;;5001135;28;20280;-74
2023/01/10 08:37:45;;;;;;;3.60;2.57;;;19.40;43.50;;;;;;5017240;28;20231;-73
2023/01/10 08:40:11;;;;;;;2.97;2.77;;;19.40;43.60;;;;;;5012308;28;20303;-73
2023/01/10 08:42:36;;;;;;;3.20;2.90;;;19.40;43.60;;;;;;5014040;28;20670;-74
2023/01/10 08:45:03;;;;;;;2.73;2.53;;;19.40;43.60;;;;;;5013046;28;20309;-73
2023/01/10 08:47:28;;;;;;;2.30;2.10;;;19.40;43.60;;;;;;4993164;28;20780;-74
2023/01/10 08:49:54;;;;;;;4.63;2.33;;;19.40;43.60;;;;;;5014057;28;20554;-73
2023/01/10 08:52:20;;;;;;;2.40;2.20;;;19.40;43.60;;;;;;5012945;28;20577;-73
2023/01/10 08:54:45;;;;;;;2.80;2.60;;;19.40;43.60;;;;;;4996836;28;20292;-73
2023/01/10 08:57:11;;;;;;;1.90;1.80;;;19.40;43.60;;;;;;5014618;28;20240;-73
2023/01/10 08:59:36;;;;;;;2.50;2.30;;;19.40;43.60;;;;;;5010866;28;20234;-74
2023/01/10 09:02:03;;;;;;;2.30;2.13;;;19.40;43.60;;;;;;4994692;28;20648;-74
2023/01/10 09:04:29;;;;;;;2.37;2.17;;;19.40;43.60;;;;;;5011489;28;20226;-74
2023/01/10 09:06:55;;;;;;;2.10;2.00;;;19.40;43.60;;;;;;5014508;28;20427;-73
2023/01/10 09:09:21;;;;;;;2.20;2.00;;;19.40;43.50;;;;;;5017651;28;20234;-73
2023/01/10 09:11:46;;;;;;;2.10;1.93;;;19.40;43.50;;;;;;5016842;28;20818;-73
2023/01/10 09:14:12;;;;;;;2.60;2.40;;;19.40;43.50;;;;;;5015483;28;20306;-73
2023/01/10 09:16:38;;;;;;;2.37;2.00;;;19.40;43.50;;;;;;5017275;28;20595;-73
2023/01/10 09:19:04;;;;;;;2.23;2.03;;;19.40;43.50;;;;;;5012339;28;20318;-73
2023/01/10 09:21:29;;;;;;;2.20;2.00;;;19.40;43.60;;;;;;5014446;28;20539;-73
2023/01/10 09:23:55;;;;;;;1.93;1.83;;;19.40;43.50;;;;;;4997938;28;20690;-74
2023/01/10 09:26:21;;;;;;;2.20;2.00;;;19.40;43.50;;;;;;5013193;28;20690;-74
2023/01/10 09:28:47;;;;;;;2.00;1.90;;;19.40;43.60;;;;;;5010484;28;20284;-74
2023/01/10 09:31:14;;;;;;;2.10;1.90;;;19.40;43.50;;;;;;4998933;28;20223;-74
2023/01/10 09:33:41;;;;;;;2.43;2.33;;;19.40;43.50;;;;;;5013343;28;20459;-73
2023/01/10 09:36:07;;;;;;;2.07;1.97;;;19.40;43.50;;;;;;5011518;28;20983;-74
2023/01/10 09:38:33;;;;;;;2.23;1.83;;;19.40;44.30;;;;;;5015267;28;20991;-73
2023/01/10 09:41:17;;;;;;;1.77;1.67;;;19.40;43.50;;;;;;5012940;28;20479;-74
2023/01/10 09:44:01;;;;;;;2.00;1.63;;;19.40;43.50;;;;;;5010343;28;20464;-74
2023/01/10 09:46:41;;;;;;;1.90;1.70;;;19.40;43.50;;;;;;5009036;28;20482;-73
2023/01/10 09:49:22;;;;;;;3.90;2.10;;;19.40;43.50;;;;;;5009716;28;20502;-74
2023/01/10 09:51:50;;;;;;;2.70;2.00;;;19.40;43.50;;;;;;5012934;28;20455;-74
2023/01/10 09:54:27;;;;;;;2.40;1.93;;;19.40;43.60;;;;;;5017726;28;20518;-74
2023/01/10 09:56:54;;;;;;;2.90;1.87;;;19.40;43.60;;;;;;5014649;28;20464;-74
2023/01/10 09:59:29;;;;;;;1.90;1.80;;;19.40;43.50;;;;;;5011710;28;20455;-74
2023/01/10 10:02:03;;;;;;;2.30;2.10;;;19.40;43.50;;;;;;5014857;28;20869;-74
2023/01/10 10:04:36;;;;;;;2.73;2.20;;;19.40;43.60;;;;;;5010018;28;20461;-73
2023/01/10 10:07:03;;;;;;;2.70;1.80;;;19.40;43.50;;;;;;5013426;28;20430;-74
2023/01/10 10:09:31;;;;;;;2.57;2.03;;;19.40;43.60;;;;;;5012539;28;20465;-74
2023/01/10 10:12:15;;;;;;;2.10;1.93;;;19.40;43.60;;;;;;5018580;28;20906;-74
2023/01/10 10:15:17;;;;;;;2.43;2.23;;;19.40;43.60;;;;;;5012125;28;20461;-73
2023/01/10 10:17:52;;;;;;;2.10;1.70;;;19.40;43.60;;;;;;5015251;28;20447;-74
2023/01/10 10:20:21;;;;;;;2.23;2.03;;;19.40;43.60;;;;;;5007163;28;20539;-73
2023/01/10 10:22:53;;;;;;;2.17;1.97;;;19.40;43.70;;;;;;5009956;28;20415;-74
2023/01/10 10:25:50;;;;;;;2.30;1.80;;;19.40;43.60;;;;;;4997070;28;20962;-74
2023/01/10 10:28:37;;;;;;;2.20;2.00;;;19.40;43.50;;;;;;5011806;28;20423;-73
2023/01/10 10:31:06;;;;;;;1.60;1.50;;;19.40;43.50;;;;;;5010868;28;20544;-74
2023/01/10 10:33:53;;;;;;;2.20;1.93;;;19.40;43.60;;;;;;4999707;28;20790;-74
2023/01/10 10:36:25;;;;;;;1.77;1.67;;;19.40;43.90;;;;;;4994250;28;20488;-74
2023/01/10 10:38:54;;;;;;;1.97;1.87;;;19.40;43.50;;;;;;5011818;28;20484;-74
2023/01/10 10:41:44;;;;;;;2.20;2.00;;;19.40;43.50;;;;;;5010320;28;20464;-74
2023/01/10 10:44:34;;;;;;;2.10;1.90;;;19.40;43.50;;;;;;5010813;28;20452;-74
2023/01/10 10:47:00;;;;;;;1.67;1.57;;;19.40;43.50;;;;;;4986037;28;20510;-74
2023/01/10 10:49:41;;;;;;;1.70;1.60;;;19.40;43.50;;;;;;5007140;28;20930;-74
2023/01/10 10:52:16;;;;;;;1.53;1.43;;;19.40;43.50;;;;;;5005215;28;20772;-74
2023/01/10 10:54:42;;;;;;;2.00;1.80;;;19.40;43.50;;;;;;5005955;28;20534;-75
2023/01/10 10:57:10;;;;;;;1.63;1.53;;;19.40;43.60;;;;;;5004093;28;20488;-74
2023/01/10 10:59:36;;;;;;;1.93;1.60;;;19.40;43.50;;;;;;5005977;28;20283;-74
2023/01/10 11:02:02;;;;;;;1.80;1.70;;;19.40;43.50;;;;;;4991306;28;20436;-74
2023/01/10 11:04:29;;;;;;;2.13;1.67;;;19.40;43.50;;;;;;5008911;28;20231;-74
2023/01/10 11:06:55;;;;;;;2.03;1.90;;;19.40;43.50;;;;;;5007115;28;21282;-74
2023/01/10 11:09:32;;;;;;;2.00;1.87;;;19.40;43.50;;;;;;5003497;28;20442;-74
2023/01/10 11:11:58;;;;;;;1.70;1.60;;;19.40;43.50;;;;;;4986971;28;20276;-73
2023/01/10 11:14:53;;;;;;;1.77;1.50;;;19.40;43.50;;;;;;5005803;28;20442;-74
2023/01/10 11:17:33;;;;;;;2.27;2.03;;;19.40;43.40;;;;;;4980556;28;20235;-74
2023/01/10 11:20:06;;;;;;;1.50;1.40;;;19.40;43.50;;;;;;5003605;28;20901;-74
2023/01/10 11:22:43;;;;;;;2.30;1.83;;;19.40;43.50;;;;;;5002779;28;20435;-73
2023/01/10 11:25:16;;;;;;;1.63;1.53;;;19.40;43.40;;;;;;5003306;28;20418;-73
2023/01/10 11:27:52;;;;;;;1.60;1.50;;;19.40;43.40;;;;;;4991040;28;20437;-74
2023/01/10 11:30:22;;;;;;;1.70;1.60;;;19.40;43.40;;;;;;4988154;28;21355;-74
2023/01/10 11:32:56;;;;;;;2.33;2.13;;;19.40;43.30;;;;;;4985953;28;20488;-74
2023/01/10 11:35:27;;;;;;;1.87;1.60;;;19.40;43.30;;;;;;5004905;28;20448;-74
2023/01/10 11:38:01;;;;;;;1.43;1.30;;;19.50;43.40;;;;;;5002787;28;21258;-74
2023/01/10 11:40:29;;;;;;;1.70;1.60;;;19.50;43.30;;;;;;4999861;28;20462;-73
2023/01/10 11:42:57;;;;;;;1.47;1.37;;;19.50;43.30;;;;;;4981591;28;20961;-74
2023/01/10 11:45:25;;;;;;;1.70;1.60;;;19.50;43.30;;;;;;5002404;28;20520;-73
2023/01/10 11:48:15;;;;;;;1.63;1.50;;;19.50;43.30;;;;;;5001024;28;20462;-73
2023/01/10 11:50:44;;;;;;;1.67;1.57;;;19.50;43.30;;;;;;5001084;28;20460;-74
2023/01/10 11:53:31;;;;;;;1.80;1.60;;;19.50;43.30;;;;;;5009006;28;20521;-74
2023/01/10 11:55:57;;;;;;;1.80;1.37;;;19.50;43.20;;;;;;4999722;28;20509;-73
2023/01/10 11:58:33;;;;;;;1.40;1.30;;;19.50;43.30;;;;;;4999598;28;20438;-74
2023/01/10 12:00:59;;;;;;;1.93;1.43;;;19.50;43.30;;;;;;5004332;28;20270;-73
2023/01/10 12:03:28;;;;;;;1.70;1.60;;;19.50;43.20;;;;;;4999623;28;20439;-74
2023/01/10 12:05:58;;;;;;;1.40;1.30;;;19.50;43.20;;;;;;5002660;28;20940;-74
2023/01/10 12:08:32;;;;;;;1.47;1.33;;;19.50;43.20;;;;;;4994830;28;20474;-74
2023/01/10 12:11:23;;;;;;;2.03;1.83;;;19.50;43.20;;;;;;5003005;28;20953;-74
2023/01/10 12:13:51;;;;;;;1.70;1.20;;;19.50;43.20;;;;;;5003720;28;20435;-72
2023/01/10 12:16:32;;;;;;;1.53;1.43;;;19.50;44.00;;;;;;5000884;28;20478;-71
2023/01/10 12:19:00;;;;;;;1.40;1.30;;;19.50;43.20;;;;;;5003770;28;20491;-71
2023/01/10 12:21:38;;;;;;;2.27;1.50;;;19.50;43.20;;;;;;5002495;28;20465;-71
2023/01/10 12:24:27;;;;;;;2.70;1.50;;;19.50;43.30;;;;;;5001783;28;20476;-72
2023/01/10 12:26:53;;;;;;;1.43;1.33;;;19.50;43.20;;;;;;5000976;28;20473;-72
2023/01/10 12:29:26;;;;;;;1.73;1.63;;;19.50;43.20;;;;;;4989222;28;20456;-72
2023/01/10 12:31:53;;;;;;;1.67;1.57;;;19.50;43.20;;;;;;5003938;28;20437;-72
2023/01/10 12:34:26;;;;;;;1.50;1.40;;;19.50;43.20;;;;;;5004119;28;20545;-72
2023/01/10 12:37:07;;;;;;;1.77;1.67;;;19.50;43.20;;;;;;5004461;28;20475;-72
2023/01/10 12:39:40;;;;;;;2.30;1.83;;;19.50;43.20;;;;;;5006900;28;22196;-72
2023/01/10 12:45:12;;;;;;;1.63;1.40;;;19.50;43.20;;;;;;4980771;28;21078;-71
2023/01/10 12:47:55;;;;;;;1.50;1.40;;;19.50;43.20;;;;;;5007021;28;21057;-72
2023/01/10 12:50:35;;;;;;;1.20;1.10;;;19.50;43.20;;;;;;5009829;28;20458;-72
2023/01/10 12:53:10;;;;;;;1.70;1.60;;;19.50;43.10;;;;;;5006845;28;20461;-72
2023/01/10 12:55:42;;;;;;;1.67;1.47;;;19.50;43.10;;;;;;5012722;28;21199;-72
2023/01/10 12:58:26;;;;;;;1.30;1.10;;;19.50;43.10;;;;;;5005008;28;20495;-72
2023/01/10 13:00:58;;;;;;;1.63;1.20;;;19.50;43.10;;;;;;5000938;28;21295;-71
2023/01/10 13:03:27;;;;;;;2.03;1.40;;;19.50;43.20;;;;;;5006704;28;20469;-71
2023/01/10 13:05:53;;;;;;;1.33;1.23;;;19.50;43.20;;;;;;5009685;28;20426;-72
2023/01/10 13:08:24;;;;;;;2.90;1.20;;;19.50;43.10;;;;;;5002496;28;20445;-70
2023/01/10 13:10:52;;;;;;;1.57;1.43;;;19.50;43.10;;;;;;5002028;28;20242;-71